SKPC/PCR METAR and TAF weather

Enter ICAO airport designator
Station Type Date Time Source
SKPC METAR 2019/10/15 21:00 UTC NOAA

SKPC 152100Z 00000KT 9999 VCSH SCT017 SCT070 31/23 A2978 RMK VCSH/SE


Station Type Date Time Source
SKPC Decoded METAR 2019/10/15 21:00 UTC NOAA

Puerto Carreno / A. Guauquea, Colombia (SKPC) 06-10N 067-30W
Oct 15, 2019 - 05:00 PM EDT / 2019.10.15 2100 UTC
Wind: Calm:0
Visibility: greater than 7 mile(s):0
Sky conditions: partly cloudy
Weather: showers in the vicinity
Temperature: 87 F (31 C)
Heat index: 93.9 F (34.4 C):1
Dew Point: 73 F (23 C)
Relative Humidity: 62%
Pressure (altimeter): 29.78 in. Hg (1008 hPa)
ob: SKPC 152100Z 00000KT 9999 VCSH SCT017 SCT070 31/23 A2978 RMK VCSH/SE
cycle: 21

Station Type Date Time Source
SKPC TAF UTC NOAA

Error!

Example: see airport list